Time,TemperatureF,DewpointF,PressureIn,WindDirection,WindDirectionDegrees,WindSpeedMPH,WindSpeedGustMPH,Humidity,HourlyPrecipIn,Conditions,Clouds,dailyrainin,SoftwareType,DateUTC
2013-02-16 00:10:00,43.8,32.0,30.34,NW,323,1.0,3.0,63,0.00,,,0.00,weatherlink.com 1.10,2013-02-16 06:10:00,
2013-02-16 00:25:00,43.3,31.0,30.35,NNW,338,1.0,4.0,62,0.00,,,0.00,weatherlink.com 1.10,2013-02-16 06:25:00,
2013-02-16 00:40:00,42.3,31.0,30.34,NNW,338,0.0,2.0,64,0.00,,,0.00,weatherlink.com 1.10,2013-02-16 06:40:00,
2013-02-16 00:55:00,41.5,30.0,30.34,NNW,336,0.0,3.0,63,0.00,,,0.00,weatherlink.com 1.10,2013-02-16 06:55:00,
2013-02-16 01:10:00,40.7,29.0,30.34,NNW,336,0.0,0.0,64,0.00,,,0.00,weatherlink.com 1.10,2013-02-16 07:10:00,
2013-02-16 01:25:00,39.7,28.0,30.34,NNW,336,0.0,0.0,63,0.00,,,0.00,weatherlink.com 1.10,2013-02-16 07:25:00,
2013-02-16 01:40:00,38.8,27.0,30.34,NNW,336,0.0,0.0,64,0.00,,,0.00,weatherlink.com 1.10,2013-02-16 07:40:00,
2013-02-16 01:55:00,38.0,28.0,30.34,NNW,336,0.0,0.0,67,0.00,,,0.00,weatherlink.com 1.10,2013-02-16 07:55:00,
2013-02-16 02:10:00,37.3,29.0,30.35,NNW,336,0.0,0.0,72,0.00,,,0.00,weatherlink.com 1.10,2013-02-16 08:10:00,
2013-02-16 02:25:00,36.5,29.0,30.35,NNW,336,0.0,0.0,73,0.00,,,0.00,weatherlink.com 1.10,2013-02-16 08:25:00,
2013-02-16 02:40:00,36.0,29.0,30.35,NNW,336,0.0,2.0,75,0.00,,,0.00,weatherlink.com 1.10,2013-02-16 08:40:00,
2013-02-16 02:55:00,35.8,29.0,30.36,NNW,336,0.0,1.0,77,0.00,,,0.00,weatherlink.com 1.10,2013-02-16 08:55:00,
2013-02-16 03:10:00,35.4,28.0,30.36,NNW,336,0.0,0.0,75,0.00,,,0.00,weatherlink.com 1.10,2013-02-16 09:10:00,
2013-02-16 03:25:00,34.9,27.0,30.36,NNW,336,0.0,0.0,73,0.00,,,0.00,weatherlink.com 1.10,2013-02-16 09:25:00,
2013-02-16 03:40:00,34.6,26.0,30.36,NNW,336,0.0,0.0,71,0.00,,,0.00,weatherlink.com 1.10,2013-02-16 09:40:00,
2013-02-16 03:55:00,34.6,26.0,30.36,NNW,336,0.0,0.0,71,0.00,,,0.00,weatherlink.com 1.10,2013-02-16 09:55:00,
2013-02-16 04:10:00,34.2,26.0,30.36,NNW,336,0.0,0.0,72,0.00,,,0.00,weatherlink.com 1.10,2013-02-16 10:10:00,
2013-02-16 04:26:00,33.9,26.0,30.36,NNW,336,0.0,0.0,73,0.00,,,0.00,weatherlink.com 1.10,2013-02-16 10:26:00,
2013-02-16 04:40:00,33.6,26.0,30.36,NNW,336,0.0,0.0,75,0.00,,,0.00,weatherlink.com 1.10,2013-02-16 10:40:00,
2013-02-16 04:55:00,33.0,26.0,30.36,NNW,336,0.0,0.0,76,0.00,,,0.00,weatherlink.com 1.10,2013-02-16 10:55:00,
2013-02-16 05:10:00,32.8,27.0,30.37,NNW,336,0.0,0.0,80,0.00,,,0.00,weatherlink.com 1.10,2013-02-16 11:10:00,
2013-02-16 05:25:00,32.3,26.0,30.36,NNW,336,0.0,0.0,79,0.00,,,0.00,weatherlink.com 1.10,2013-02-16 11:25:00,
2013-02-16 05:40:00,32.1,27.0,30.38,NNW,336,0.0,0.0,81,0.00,,,0.00,weatherlink.com 1.10,2013-02-16 11:40:00,
2013-02-16 05:55:00,31.9,26.0,30.39,NNW,336,0.0,0.0,80,0.00,,,0.00,weatherlink.com 1.10,2013-02-16 11:55:00,
2013-02-16 06:10:00,31.8,26.0,30.39,NNW,336,0.0,0.0,79,0.00,,,0.00,weatherlink.com 1.10,2013-02-16 12:10:00,
2013-02-16 06:25:00,31.9,26.0,30.39,NNW,336,0.0,0.0,79,0.00,,,0.00,weatherlink.com 1.10,2013-02-16 12:25:00,
2013-02-16 06:41:00,31.7,26.0,30.39,NNW,336,0.0,0.0,79,0.00,,,0.00,weatherlink.com 1.10,2013-02-16 12:41:00,
2013-02-16 06:56:00,31.2,26.0,30.40,NNW,336,0.0,0.0,81,0.00,,,0.00,weatherlink.com 1.10,2013-02-16 12:56:00,
2013-02-16 07:11:00,30.8,27.0,30.41,NNW,336,0.0,0.0,84,0.00,,,0.00,weatherlink.com 1.10,2013-02-16 13:11:00,
2013-02-16 07:26:00,30.6,26.0,30.41,NNW,336,0.0,0.0,84,0.00,,,0.00,weatherlink.com 1.10,2013-02-16 13:26:00,
2013-02-16 07:41:00,30.9,27.0,30.41,NNW,336,0.0,0.0,84,0.00,,,0.00,weatherlink.com 1.10,2013-02-16 13:41:00,
2013-02-16 07:56:00,31.7,28.0,30.42,NNW,336,0.0,0.0,85,0.00,,,0.00,weatherlink.com 1.10,2013-02-16 13:56:00,
2013-02-16 08:11:00,32.6,27.0,30.42,NNW,336,0.0,0.0,81,0.00,,,0.00,weatherlink.com 1.10,2013-02-16 14:11:00,
2013-02-16 08:26:00,35.0,29.0,30.42,NNW,336,0.0,2.0,80,0.00,,,0.00,weatherlink.com 1.10,2013-02-16 14:26:00,
2013-02-16 08:41:00,37.1,30.0,30.43,NNW,336,0.0,2.0,75,0.00,,,0.00,weatherlink.com 1.10,2013-02-16 14:41:00,
2013-02-16 08:56:00,39.3,28.0,30.42,NNW,336,2.0,3.0,65,0.00,,,0.00,weatherlink.com 1.10,2013-02-16 14:56:00,
2013-02-16 09:11:00,43.7,24.0,30.43,NNW,333,3.0,4.0,46,0.00,,,0.00,weatherlink.com 1.10,2013-02-16 15:11:00,
2013-02-16 09:26:00,45.0,23.0,30.43,NNW,336,1.0,4.0,42,0.00,,,0.00,weatherlink.com 1.10,2013-02-16 15:26:00,
2013-02-16 09:41:00,46.6,24.0,30.43,North,355,0.0,5.0,41,0.00,,,0.00,weatherlink.com 1.10,2013-02-16 15:41:00,
2013-02-16 09:56:00,46.9,25.0,30.43,NNW,340,3.0,6.0,42,0.00,,,0.00,weatherlink.com 1.10,2013-02-16 15:56:00,
2013-02-16 10:11:00,46.9,25.0,30.42,NNW,337,3.0,7.0,42,0.00,,,0.00,weatherlink.com 1.10,2013-02-16 16:11:00,
2013-02-16 10:26:00,47.7,27.0,30.42,North,350,5.0,5.0,44,0.00,,,0.00,weatherlink.com 1.10,2013-02-16 16:26:00,
2013-02-16 10:41:00,49.0,25.0,30.41,NNW,344,1.0,5.0,40,0.00,,,0.00,weatherlink.com 1.10,2013-02-16 16:41:00,
2013-02-16 10:56:00,50.1,25.0,30.41,SW,229,3.0,5.0,38,0.00,,,0.00,weatherlink.com 1.10,2013-02-16 16:56:00,
2013-02-16 11:14:00,50.3,24.0,30.40,WNW,299,3.0,8.0,36,0.00,,,0.00,weatherlink.com 1.10,2013-02-16 17:14:00,
2013-02-16 11:26:00,50.9,25.0,30.40,WNW,297,0.0,5.0,37,0.00,,,0.00,weatherlink.com 1.10,2013-02-16 17:26:00,
2013-02-16 11:41:00,51.9,27.0,30.40,WSW,253,2.0,7.0,39,0.00,,,0.00,weatherlink.com 1.10,2013-02-16 17:41:00,
2013-02-16 11:56:00,53.2,27.0,30.39,WSW,251,0.0,8.0,36,0.00,,,0.00,weatherlink.com 1.10,2013-02-16 17:56:00,
2013-02-16 12:11:00,52.6,25.0,30.39,WNW,300,1.0,8.0,35,0.00,,,0.00,weatherlink.com 1.10,2013-02-16 18:11:00,
2013-02-16 12:26:00,53.1,27.0,30.37,NNW,343,4.0,7.0,36,0.00,,,0.00,weatherlink.com 1.10,2013-02-16 18:26:00,
2013-02-16 12:41:00,53.5,28.0,30.37,North,349,3.0,6.0,37,0.00,,,0.00,weatherlink.com 1.10,2013-02-16 18:41:00,
2013-02-16 12:57:00,53.8,27.0,30.36,WSW,247,2.0,7.0,35,0.00,,,0.00,weatherlink.com 1.10,2013-02-16 18:57:00,
2013-02-16 13:11:00,54.7,27.0,30.35,NNW,337,3.0,7.0,35,0.00,,,0.00,weatherlink.com 1.10,2013-02-16 19:11:00,
2013-02-16 13:27:00,55.0,28.0,30.34,SW,220,5.0,7.0,35,0.00,,,0.00,weatherlink.com 1.10,2013-02-16 19:27:00,
2013-02-16 13:41:00,55.5,29.0,30.33,West,263,3.0,6.0,37,0.00,,,0.00,weatherlink.com 1.10,2013-02-16 19:41:00,
2013-02-16 13:56:00,55.9,28.0,30.32,NNW,329,5.0,9.0,34,0.00,,,0.00,weatherlink.com 1.10,2013-02-16 19:56:00,
2013-02-16 14:11:00,55.8,26.0,30.31,North,355,2.0,7.0,32,0.00,,,0.00,weatherlink.com 1.10,2013-02-16 20:11:00,
2013-02-16 14:26:00,56.2,28.0,30.31,NW,323,1.0,6.0,34,0.00,,,0.00,weatherlink.com 1.10,2013-02-16 20:26:00,
2013-02-16 14:41:00,57.5,27.0,30.30,WSW,240,3.0,5.0,31,0.00,,,0.00,weatherlink.com 1.10,2013-02-16 20:41:00,
2013-02-16 14:56:00,57.1,27.0,30.29,NW,315,1.0,5.0,32,0.00,,,0.00,weatherlink.com 1.10,2013-02-16 20:56:00,
2013-02-16 15:12:00,56.5,26.0,30.29,NW,326,0.0,5.0,31,0.00,,,0.00,weatherlink.com 1.10,2013-02-16 21:12:00,
2013-02-16 15:27:00,57.0,26.0,30.28,NW,321,2.0,4.0,30,0.00,,,0.00,weatherlink.com 1.10,2013-02-16 21:27:00,
2013-02-16 15:42:00,56.4,26.0,30.28,NNW,340,0.0,7.0,31,0.00,,,0.00,weatherlink.com 1.10,2013-02-16 21:42:00,
2013-02-16 15:57:00,56.5,26.0,30.27,NNW,335,2.0,5.0,31,0.00,,,0.00,weatherlink.com 1.10,2013-02-16 21:57:00,
2013-02-16 16:12:00,56.6,26.0,30.27,NW,321,0.0,3.0,31,0.00,,,0.00,weatherlink.com 1.10,2013-02-16 22:12:00,
2013-02-16 16:42:00,55.5,28.0,30.26,NW,322,1.0,4.0,35,0.00,,,0.00,weatherlink.com 1.10,2013-02-16 22:42:00,
2013-02-16 16:57:00,54.7,27.0,30.26,West,270,0.0,3.0,35,0.00,,,0.00,weatherlink.com 1.10,2013-02-16 22:57:00,
2013-02-16 17:12:00,54.7,29.0,30.26,NW,306,0.0,3.0,38,0.00,,,0.00,weatherlink.com 1.10,2013-02-16 23:12:00,
2013-02-16 17:27:00,53.9,28.0,30.26,East,84,0.0,2.0,37,0.00,,,0.00,weatherlink.com 1.10,2013-02-16 23:27:00,
2013-02-16 17:42:00,53.1,29.0,30.26,East,84,0.0,0.0,40,0.00,,,0.00,weatherlink.com 1.10,2013-02-16 23:42:00,
2013-02-16 17:57:00,52.1,30.0,30.26,East,84,0.0,0.0,43,0.00,,,0.00,weatherlink.com 1.10,2013-02-16 23:57:00,
2013-02-16 18:12:00,51.0,30.0,30.26,East,84,0.0,0.0,45,0.00,,,0.00,weatherlink.com 1.10,2013-02-17 00:12:00,
2013-02-16 18:27:00,50.0,29.0,30.27,East,84,0.0,0.0,45,0.00,,,0.00,weatherlink.com 1.10,2013-02-17 00:27:00,
2013-02-16 18:42:00,48.8,30.0,30.27,East,84,0.0,0.0,48,0.00,,,0.00,weatherlink.com 1.10,2013-02-17 00:42:00,
2013-02-16 18:57:00,47.7,31.0,30.27,East,84,0.0,0.0,52,0.00,,,0.00,weatherlink.com 1.10,2013-02-17 00:57:00,
2013-02-16 19:12:00,46.3,31.0,30.27,East,84,0.0,0.0,56,0.00,,,0.00,weatherlink.com 1.10,2013-02-17 01:12:00,
2013-02-16 19:27:00,45.3,34.0,30.27,East,84,0.0,0.0,66,0.00,,,0.00,weatherlink.com 1.10,2013-02-17 01:27:00,
2013-02-16 19:42:00,43.6,33.0,30.27,SSE,159,0.0,4.0,67,0.00,,,0.00,weatherlink.com 1.10,2013-02-17 01:42:00,
2013-02-16 19:57:00,42.7,32.0,30.27,SSE,159,0.0,0.0,65,0.00,,,0.00,weatherlink.com 1.10,2013-02-17 01:57:00,
2013-02-16 20:12:00,42.5,34.0,30.28,SSE,159,0.0,0.0,72,0.00,,,0.00,weatherlink.com 1.10,2013-02-17 02:12:00,
2013-02-16 20:27:00,41.7,33.0,30.28,SSE,159,0.0,0.0,71,0.00,,,0.00,weatherlink.com 1.10,2013-02-17 02:27:00,
2013-02-16 20:42:00,41.2,33.0,30.27,SSE,159,0.0,0.0,73,0.00,,,0.00,weatherlink.com 1.10,2013-02-17 02:42:00,
2013-02-16 20:57:00,40.6,33.0,30.27,SSE,159,0.0,0.0,75,0.00,,,0.00,weatherlink.com 1.10,2013-02-17 02:57:00,
2013-02-16 21:12:00,39.9,33.0,30.27,SSE,159,0.0,0.0,77,0.00,,,0.00,weatherlink.com 1.10,2013-02-17 03:12:00,
2013-02-16 21:27:00,39.8,34.0,30.27,SSE,159,0.0,0.0,79,0.00,,,0.00,weatherlink.com 1.10,2013-02-17 03:27:00,
2013-02-16 21:42:00,39.3,34.0,30.27,SSE,159,0.0,0.0,82,0.00,,,0.00,weatherlink.com 1.10,2013-02-17 03:42:00,
2013-02-16 21:57:00,37.9,33.0,30.27,SSE,159,0.0,0.0,81,0.00,,,0.00,weatherlink.com 1.10,2013-02-17 03:57:00,
2013-02-16 22:12:00,37.5,32.0,30.27,SSE,159,0.0,0.0,81,0.00,,,0.00,weatherlink.com 1.10,2013-02-17 04:12:00,
2013-02-16 22:27:00,37.3,32.0,30.27,SSE,159,0.0,0.0,82,0.00,,,0.00,weatherlink.com 1.10,2013-02-17 04:27:00,
2013-02-16 22:42:00,36.7,32.0,30.26,SSE,159,0.0,0.0,83,0.00,,,0.00,weatherlink.com 1.10,2013-02-17 04:42:00,
2013-02-16 22:57:00,36.4,32.0,30.26,SSE,159,0.0,0.0,83,0.00,,,0.00,weatherlink.com 1.10,2013-02-17 04:57:00,
2013-02-16 23:12:00,36.2,32.0,30.26,SSE,159,0.0,0.0,84,0.00,,,0.00,weatherlink.com 1.10,2013-02-17 05:12:00,
2013-02-16 23:27:00,35.9,32.0,30.26,SSE,159,0.0,0.0,85,0.00,,,0.00,weatherlink.com 1.10,2013-02-17 05:27:00,
2013-02-16 23:42:00,35.5,32.0,30.26,SSE,159,0.0,0.0,86,0.00,,,0.00,weatherlink.com 1.10,2013-02-17 05:42:00,
2013-02-16 23:57:00,35.3,32.0,30.26,SSE,159,0.0,0.0,86,0.00,,,0.00,weatherlink.com 1.10,2013-02-17 05:57:00,